sensor_id;sensor_type;location;lat;lon;timestamp;P1;durP1;ratioP1;P2;durP2;ratioP2
36629;SDS011;36256;42.154;23.002;2023-11-19T00:01:58;7.13;;;3.90;;
36629;SDS011;36256;42.154;23.002;2023-11-19T00:04:24;2.78;;;2.03;;
36629;SDS011;36256;42.154;23.002;2023-11-19T00:06:51;3.25;;;2.45;;
36629;SDS011;36256;42.154;23.002;2023-11-19T00:09:18;3.63;;;2.33;;
36629;SDS011;36256;42.154;23.002;2023-11-19T00:11:45;2.83;;;1.70;;
36629;SDS011;36256;42.154;23.002;2023-11-19T00:14:19;2.15;;;1.83;;
36629;SDS011;36256;42.154;23.002;2023-11-19T00:16:46;1.90;;;1.70;;
36629;SDS011;36256;42.154;23.002;2023-11-19T00:19:13;2.72;;;1.85;;
36629;SDS011;36256;42.154;23.002;2023-11-19T00:21:39;1.92;;;1.73;;
36629;SDS011;36256;42.154;23.002;2023-11-19T00:24:07;2.95;;;2.03;;
36629;SDS011;36256;42.154;23.002;2023-11-19T00:26:35;3.28;;;1.63;;
36629;SDS011;36256;42.154;23.002;2023-11-19T00:29:01;2.13;;;1.70;;
36629;SDS011;36256;42.154;23.002;2023-11-19T00:31:28;2.17;;;1.60;;
36629;SDS011;36256;42.154;23.002;2023-11-19T00:33:55;3.20;;;2.08;;
36629;SDS011;36256;42.154;23.002;2023-11-19T00:36:22;2.13;;;1.92;;
36629;SDS011;36256;42.154;23.002;2023-11-19T00:38:50;2.78;;;1.65;;
36629;SDS011;36256;42.154;23.002;2023-11-19T00:41:19;2.40;;;1.92;;
36629;SDS011;36256;42.154;23.002;2023-11-19T00:43:45;2.30;;;1.98;;
36629;SDS011;36256;42.154;23.002;2023-11-19T00:46:12;2.33;;;1.92;;
36629;SDS011;36256;42.154;23.002;2023-11-19T00:48:40;3.53;;;1.83;;
36629;SDS011;36256;42.154;23.002;2023-11-19T00:51:07;1.80;;;1.70;;
36629;SDS011;36256;42.154;23.002;2023-11-19T00:53:34;2.70;;;2.20;;
36629;SDS011;36256;42.154;23.002;2023-11-19T00:56:00;2.83;;;2.30;;
36629;SDS011;36256;42.154;23.002;2023-11-19T00:58:27;4.13;;;2.10;;
36629;SDS011;36256;42.154;23.002;2023-11-19T01:00:54;2.38;;;2.03;;
36629;SDS011;36256;42.154;23.002;2023-11-19T01:03:20;4.05;;;2.08;;
36629;SDS011;36256;42.154;23.002;2023-11-19T01:05:47;3.47;;;2.10;;
36629;SDS011;36256;42.154;23.002;2023-11-19T01:08:17;3.97;;;1.85;;
36629;SDS011;36256;42.154;23.002;2023-11-19T01:10:43;1.67;;;1.38;;
36629;SDS011;36256;42.154;23.002;2023-11-19T01:13:10;2.42;;;2.08;;
36629;SDS011;36256;42.154;23.002;2023-11-19T01:15:37;2.78;;;2.17;;
36629;SDS011;36256;42.154;23.002;2023-11-19T01:18:07;2.00;;;1.77;;
36629;SDS011;36256;42.154;23.002;2023-11-19T01:20:36;2.05;;;1.80;;
36629;SDS011;36256;42.154;23.002;2023-11-19T01:23:03;2.63;;;2.15;;
36629;SDS011;36256;42.154;23.002;2023-11-19T01:25:29;4.43;;;2.28;;
36629;SDS011;36256;42.154;23.002;2023-11-19T01:27:56;2.72;;;1.90;;
36629;SDS011;36256;42.154;23.002;2023-11-19T01:30:25;2.03;;;1.73;;
36629;SDS011;36256;42.154;23.002;2023-11-19T01:32:52;2.50;;;1.95;;
36629;SDS011;36256;42.154;23.002;2023-11-19T01:35:19;2.28;;;1.90;;
36629;SDS011;36256;42.154;23.002;2023-11-19T01:37:45;1.95;;;1.70;;
36629;SDS011;36256;42.154;23.002;2023-11-19T01:40:12;3.45;;;2.03;;
36629;SDS011;36256;42.154;23.002;2023-11-19T01:42:39;2.13;;;1.77;;
36629;SDS011;36256;42.154;23.002;2023-11-19T01:45:07;3.58;;;1.67;;
36629;SDS011;36256;42.154;23.002;2023-11-19T01:47:36;5.25;;;2.20;;
36629;SDS011;36256;42.154;23.002;2023-11-19T01:50:03;3.03;;;2.20;;
36629;SDS011;36256;42.154;23.002;2023-11-19T01:52:34;3.30;;;2.10;;
36629;SDS011;36256;42.154;23.002;2023-11-19T01:55:05;2.95;;;1.90;;
36629;SDS011;36256;42.154;23.002;2023-11-19T01:57:34;1.88;;;1.67;;
36629;SDS011;36256;42.154;23.002;2023-11-19T02:00:04;2.75;;;2.00;;
36629;SDS011;36256;42.154;23.002;2023-11-19T02:02:32;2.50;;;2.10;;
36629;SDS011;36256;42.154;23.002;2023-11-19T02:07:26;2.00;;;1.70;;
36629;SDS011;36256;42.154;23.002;2023-11-19T02:09:53;3.08;;;2.10;;
36629;SDS011;36256;42.154;23.002;2023-11-19T02:12:20;2.17;;;1.90;;
36629;SDS011;36256;42.154;23.002;2023-11-19T02:14:47;2.45;;;2.00;;
36629;SDS011;36256;42.154;23.002;2023-11-19T02:17:29;2.58;;;2.05;;
36629;SDS011;36256;42.154;23.002;2023-11-19T02:20:00;2.92;;;1.80;;
36629;SDS011;36256;42.154;23.002;2023-11-19T02:22:27;2.70;;;1.95;;
36629;SDS011;36256;42.154;23.002;2023-11-19T02:24:55;2.10;;;1.90;;
36629;SDS011;36256;42.154;23.002;2023-11-19T02:27:31;2.65;;;2.05;;
36629;SDS011;36256;42.154;23.002;2023-11-19T02:30:14;2.00;;;1.80;;
36629;SDS011;36256;42.154;23.002;2023-11-19T02:32:41;2.53;;;2.00;;
36629;SDS011;36256;42.154;23.002;2023-11-19T02:40:02;2.63;;;1.98;;
36629;SDS011;36256;42.154;23.002;2023-11-19T02:42:29;2.58;;;1.80;;
36629;SDS011;36256;42.154;23.002;2023-11-19T02:44:56;2.30;;;1.92;;
36629;SDS011;36256;42.154;23.002;2023-11-19T02:47:23;2.45;;;1.90;;
36629;SDS011;36256;42.154;23.002;2023-11-19T02:49:50;2.65;;;1.92;;
36629;SDS011;36256;42.154;23.002;2023-11-19T02:52:17;2.83;;;2.05;;
36629;SDS011;36256;42.154;23.002;2023-11-19T02:54:45;2.17;;;1.80;;
36629;SDS011;36256;42.154;23.002;2023-11-19T02:57:11;2.95;;;2.03;;
36629;SDS011;36256;42.154;23.002;2023-11-19T02:59:48;2.88;;;1.90;;
36629;SDS011;36256;42.154;23.002;2023-11-19T03:02:15;3.45;;;2.20;;
36629;SDS011;36256;42.154;23.002;2023-11-19T03:04:44;2.40;;;2.08;;
36629;SDS011;36256;42.154;23.002;2023-11-19T03:07:12;2.33;;;2.13;;
36629;SDS011;36256;42.154;23.002;2023-11-19T03:09:40;2.47;;;1.90;;
36629;SDS011;36256;42.154;23.002;2023-11-19T03:12:07;7.15;;;2.67;;
36629;SDS011;36256;42.154;23.002;2023-11-19T03:14:39;2.10;;;1.80;;
36629;SDS011;36256;42.154;23.002;2023-11-19T03:17:06;2.88;;;2.17;;
36629;SDS011;36256;42.154;23.002;2023-11-19T03:19:32;2.63;;;2.13;;
36629;SDS011;36256;42.154;23.002;2023-11-19T03:21:59;3.50;;;2.00;;
36629;SDS011;36256;42.154;23.002;2023-11-19T03:24:28;3.08;;;2.10;;
36629;SDS011;36256;42.154;23.002;2023-11-19T03:26:55;2.80;;;1.25;;
36629;SDS011;36256;42.154;23.002;2023-11-19T03:29:21;1.95;;;1.58;;
36629;SDS011;36256;42.154;23.002;2023-11-19T03:31:49;3.13;;;2.25;;
36629;SDS011;36256;42.154;23.002;2023-11-19T03:34:16;5.85;;;4.93;;
36629;SDS011;36256;42.154;23.002;2023-11-19T03:36:43;2.40;;;2.20;;
36629;SDS011;36256;42.154;23.002;2023-11-19T03:39:09;2.38;;;1.95;;
36629;SDS011;36256;42.154;23.002;2023-11-19T03:41:36;6.78;;;2.30;;
36629;SDS011;36256;42.154;23.002;2023-11-19T03:44:11;3.10;;;2.53;;
36629;SDS011;36256;42.154;23.002;2023-11-19T03:46:38;2.25;;;1.92;;
36629;SDS011;36256;42.154;23.002;2023-11-19T03:49:05;2.08;;;1.55;;
36629;SDS011;36256;42.154;23.002;2023-11-19T03:51:33;2.70;;;1.95;;
36629;SDS011;36256;42.154;23.002;2023-11-19T03:54:01;4.20;;;2.00;;
36629;SDS011;36256;42.154;23.002;2023-11-19T03:56:28;2.53;;;2.00;;
36629;SDS011;36256;42.154;23.002;2023-11-19T03:58:54;4.05;;;1.90;;
36629;SDS011;36256;42.154;23.002;2023-11-19T04:01:21;2.45;;;1.55;;
36629;SDS011;36256;42.154;23.002;2023-11-19T04:03:47;2.45;;;1.83;;
36629;SDS011;36256;42.154;23.002;2023-11-19T04:06:17;2.20;;;2.00;;
36629;SDS011;36256;42.154;23.002;2023-11-19T04:08:43;3.00;;;2.00;;
36629;SDS011;36256;42.154;23.002;2023-11-19T04:11:10;2.17;;;1.80;;
36629;SDS011;36256;42.154;23.002;2023-11-19T04:13:37;3.58;;;1.77;;
36629;SDS011;36256;42.154;23.002;2023-11-19T04:16:04;3.53;;;2.15;;
36629;SDS011;36256;42.154;23.002;2023-11-19T04:18:31;2.10;;;1.90;;
36629;SDS011;36256;42.154;23.002;2023-11-19T04:20:58;2.22;;;1.80;;
36629;SDS011;36256;42.154;23.002;2023-11-19T04:23:25;3.65;;;2.47;;
36629;SDS011;36256;42.154;23.002;2023-11-19T04:25:51;5.25;;;1.88;;
36629;SDS011;36256;42.154;23.002;2023-11-19T04:28:18;2.53;;;2.00;;
36629;SDS011;36256;42.154;23.002;2023-11-19T04:30:45;3.58;;;2.40;;
36629;SDS011;36256;42.154;23.002;2023-11-19T04:33:11;2.67;;;2.22;;
36629;SDS011;36256;42.154;23.002;2023-11-19T04:35:38;2.28;;;1.67;;
36629;SDS011;36256;42.154;23.002;2023-11-19T04:38:05;2.75;;;2.05;;
36629;SDS011;36256;42.154;23.002;2023-11-19T04:40:31;2.38;;;2.00;;
36629;SDS011;36256;42.154;23.002;2023-11-19T04:43:00;3.97;;;2.33;;
36629;SDS011;36256;42.154;23.002;2023-11-19T04:45:27;4.40;;;2.28;;
36629;SDS011;36256;42.154;23.002;2023-11-19T04:47:53;3.13;;;2.15;;
36629;SDS011;36256;42.154;23.002;2023-11-19T04:50:20;4.45;;;2.40;;
36629;SDS011;36256;42.154;23.002;2023-11-19T04:55:14;3.15;;;1.90;;
36629;SDS011;36256;42.154;23.002;2023-11-19T04:57:41;3.78;;;2.35;;
36629;SDS011;36256;42.154;23.002;2023-11-19T05:00:08;3.00;;;2.40;;
36629;SDS011;36256;42.154;23.002;2023-11-19T05:02:40;7.60;;;4.75;;
36629;SDS011;36256;42.154;23.002;2023-11-19T05:05:09;2.75;;;2.30;;
36629;SDS011;36256;42.154;23.002;2023-11-19T05:07:36;2.83;;;2.25;;
36629;SDS011;36256;42.154;23.002;2023-11-19T05:10:03;4.10;;;2.42;;
36629;SDS011;36256;42.154;23.002;2023-11-19T05:12:30;3.30;;;2.17;;
36629;SDS011;36256;42.154;23.002;2023-11-19T05:14:57;2.92;;;2.58;;
36629;SDS011;36256;42.154;23.002;2023-11-19T05:17:24;2.63;;;2.28;;
36629;SDS011;36256;42.154;23.002;2023-11-19T05:19:51;2.92;;;2.00;;
36629;SDS011;36256;42.154;23.002;2023-11-19T05:22:18;2.85;;;2.35;;
36629;SDS011;36256;42.154;23.002;2023-11-19T05:24:47;2.55;;;2.25;;
36629;SDS011;36256;42.154;23.002;2023-11-19T05:27:16;2.95;;;2.20;;
36629;SDS011;36256;42.154;23.002;2023-11-19T05:29:42;2.97;;;2.30;;
36629;SDS011;36256;42.154;23.002;2023-11-19T05:32:10;2.90;;;2.30;;
36629;SDS011;36256;42.154;23.002;2023-11-19T05:34:37;3.20;;;2.35;;
36629;SDS011;36256;42.154;23.002;2023-11-19T05:37:17;4.53;;;2.17;;
36629;SDS011;36256;42.154;23.002;2023-11-19T05:39:45;2.70;;;1.95;;
36629;SDS011;36256;42.154;23.002;2023-11-19T05:42:11;3.08;;;2.38;;
36629;SDS011;36256;42.154;23.002;2023-11-19T05:44:38;3.08;;;2.47;;
36629;SDS011;36256;42.154;23.002;2023-11-19T05:47:07;3.40;;;2.53;;
36629;SDS011;36256;42.154;23.002;2023-11-19T05:49:34;3.67;;;2.35;;
36629;SDS011;36256;42.154;23.002;2023-11-19T05:52:00;2.88;;;2.42;;
36629;SDS011;36256;42.154;23.002;2023-11-19T05:54:29;3.78;;;2.40;;
36629;SDS011;36256;42.154;23.002;2023-11-19T05:56:57;2.95;;;2.50;;
36629;SDS011;36256;42.154;23.002;2023-11-19T05:59:24;5.78;;;3.65;;
36629;SDS011;36256;42.154;23.002;2023-11-19T06:01:51;5.18;;;2.83;;
36629;SDS011;36256;42.154;23.002;2023-11-19T06:04:18;2.83;;;2.10;;
36629;SDS011;36256;42.154;23.002;2023-11-19T06:06:44;3.88;;;2.38;;
36629;SDS011;36256;42.154;23.002;2023-11-19T06:09:11;4.38;;;2.90;;
36629;SDS011;36256;42.154;23.002;2023-11-19T06:11:39;5.18;;;3.58;;
36629;SDS011;36256;42.154;23.002;2023-11-19T06:14:06;6.20;;;3.90;;
36629;SDS011;36256;42.154;23.002;2023-11-19T06:16:33;4.63;;;3.20;;
36629;SDS011;36256;42.154;23.002;2023-11-19T06:19:00;2.88;;;2.42;;
36629;SDS011;36256;42.154;23.002;2023-11-19T06:21:27;5.45;;;2.95;;
36629;SDS011;36256;42.154;23.002;2023-11-19T06:23:54;2.83;;;2.40;;
36629;SDS011;36256;42.154;23.002;2023-11-19T06:26:20;5.35;;;2.67;;
36629;SDS011;36256;42.154;23.002;2023-11-19T06:28:48;3.13;;;2.58;;
36629;SDS011;36256;42.154;23.002;2023-11-19T06:31:15;4.90;;;2.80;;
36629;SDS011;36256;42.154;23.002;2023-11-19T06:36:09;4.40;;;3.15;;
36629;SDS011;36256;42.154;23.002;2023-11-19T06:38:36;3.22;;;2.75;;
36629;SDS011;36256;42.154;23.002;2023-11-19T06:41:05;4.20;;;3.03;;
36629;SDS011;36256;42.154;23.002;2023-11-19T06:43:33;4.60;;;2.92;;
36629;SDS011;36256;42.154;23.002;2023-11-19T06:46:03;5.88;;;3.08;;
36629;SDS011;36256;42.154;23.002;2023-11-19T06:48:32;8.57;;;4.40;;
36629;SDS011;36256;42.154;23.002;2023-11-19T06:50:59;4.68;;;3.40;;
36629;SDS011;36256;42.154;23.002;2023-11-19T06:53:26;5.15;;;3.00;;
36629;SDS011;36256;42.154;23.002;2023-11-19T06:55:54;4.68;;;2.90;;
36629;SDS011;36256;42.154;23.002;2023-11-19T06:58:21;10.85;;;3.30;;
36629;SDS011;36256;42.154;23.002;2023-11-19T07:00:48;5.18;;;2.90;;
36629;SDS011;36256;42.154;23.002;2023-11-19T07:03:16;4.07;;;2.58;;
36629;SDS011;36256;42.154;23.002;2023-11-19T07:05:43;43.22;;;16.02;;
36629;SDS011;36256;42.154;23.002;2023-11-19T07:08:10;6.97;;;3.85;;
36629;SDS011;36256;42.154;23.002;2023-11-19T07:13:04;11.15;;;4.40;;
36629;SDS011;36256;42.154;23.002;2023-11-19T07:15:32;4.55;;;2.85;;
36629;SDS011;36256;42.154;23.002;2023-11-19T07:17:59;5.53;;;2.70;;
36629;SDS011;36256;42.154;23.002;2023-11-19T07:20:28;3.40;;;2.78;;
36629;SDS011;36256;42.154;23.002;2023-11-19T07:22:55;5.00;;;3.35;;
36629;SDS011;36256;42.154;23.002;2023-11-19T07:25:24;3.97;;;2.78;;
36629;SDS011;36256;42.154;23.002;2023-11-19T07:27:51;3.58;;;2.80;;
36629;SDS011;36256;42.154;23.002;2023-11-19T07:30:18;8.02;;;4.35;;
36629;SDS011;36256;42.154;23.002;2023-11-19T07:32:45;40.53;;;15.98;;
36629;SDS011;36256;42.154;23.002;2023-11-19T07:35:11;83.25;;;40.55;;
36629;SDS011;36256;42.154;23.002;2023-11-19T07:37:38;11.43;;;7.60;;
36629;SDS011;36256;42.154;23.002;2023-11-19T07:40:05;6.72;;;5.13;;
36629;SDS011;36256;42.154;23.002;2023-11-19T07:44:59;4.45;;;3.28;;
36629;SDS011;36256;42.154;23.002;2023-11-19T07:47:26;4.53;;;3.38;;
36629;SDS011;36256;42.154;23.002;2023-11-19T07:49:55;6.15;;;3.75;;
36629;SDS011;36256;42.154;23.002;2023-11-19T07:52:22;3.67;;;2.80;;
36629;SDS011;36256;42.154;23.002;2023-11-19T07:54:48;5.93;;;2.72;;
36629;SDS011;36256;42.154;23.002;2023-11-19T07:57:15;4.30;;;3.40;;
36629;SDS011;36256;42.154;23.002;2023-11-19T07:59:42;4.18;;;3.03;;
36629;SDS011;36256;42.154;23.002;2023-11-19T08:02:08;6.72;;;2.20;;
36629;SDS011;36256;42.154;23.002;2023-11-19T08:04:35;3.78;;;3.05;;
36629;SDS011;36256;42.154;23.002;2023-11-19T08:09:29;7.05;;;2.38;;
36629;SDS011;36256;42.154;23.002;2023-11-19T08:11:56;4.25;;;3.28;;
36629;SDS011;36256;42.154;23.002;2023-11-19T08:14:22;4.03;;;2.72;;
36629;SDS011;36256;42.154;23.002;2023-11-19T08:16:50;3.35;;;2.60;;
36629;SDS011;36256;42.154;23.002;2023-11-19T08:19:17;5.53;;;3.90;;
36629;SDS011;36256;42.154;23.002;2023-11-19T08:21:44;3.90;;;3.00;;
36629;SDS011;36256;42.154;23.002;2023-11-19T08:24:11;3.97;;;3.05;;
36629;SDS011;36256;42.154;23.002;2023-11-19T08:26:37;5.43;;;3.30;;
36629;SDS011;36256;42.154;23.002;2023-11-19T08:29:04;2.60;;;2.22;;
36629;SDS011;36256;42.154;23.002;2023-11-19T08:31:31;2.88;;;2.35;;
36629;SDS011;36256;42.154;23.002;2023-11-19T08:33:57;4.38;;;3.13;;
36629;SDS011;36256;42.154;23.002;2023-11-19T08:36:24;8.27;;;5.10;;
36629;SDS011;36256;42.154;23.002;2023-11-19T08:38:57;6.07;;;4.28;;
36629;SDS011;36256;42.154;23.002;2023-11-19T08:41:28;3.80;;;3.00;;
36629;SDS011;36256;42.154;23.002;2023-11-19T08:43:54;3.63;;;2.92;;
36629;SDS011;36256;42.154;23.002;2023-11-19T08:46:27;4.88;;;3.15;;
36629;SDS011;36256;42.154;23.002;2023-11-19T08:48:53;5.22;;;3.15;;
36629;SDS011;36256;42.154;23.002;2023-11-19T08:51:22;6.60;;;2.95;;
36629;SDS011;36256;42.154;23.002;2023-11-19T08:53:51;9.40;;;3.33;;
36629;SDS011;36256;42.154;23.002;2023-11-19T08:56:17;14.07;;;6.00;;
36629;SDS011;36256;42.154;23.002;2023-11-19T08:58:47;7.25;;;3.78;;
36629;SDS011;36256;42.154;23.002;2023-11-19T09:01:13;8.18;;;3.15;;
36629;SDS011;36256;42.154;23.002;2023-11-19T09:03:40;4.03;;;2.83;;
36629;SDS011;36256;42.154;23.002;2023-11-19T09:06:07;7.70;;;2.80;;
36629;SDS011;36256;42.154;23.002;2023-11-19T09:08:34;6.43;;;3.15;;
36629;SDS011;36256;42.154;23.002;2023-11-19T09:11:07;7.30;;;3.15;;
36629;SDS011;36256;42.154;23.002;2023-11-19T09:13:35;4.63;;;3.00;;
36629;SDS011;36256;42.154;23.002;2023-11-19T09:16:02;4.90;;;3.10;;
36629;SDS011;36256;42.154;23.002;2023-11-19T09:18:32;3.50;;;2.58;;
36629;SDS011;36256;42.154;23.002;2023-11-19T09:20:59;3.35;;;2.90;;
36629;SDS011;36256;42.154;23.002;2023-11-19T09:23:29;9.38;;;3.15;;
36629;SDS011;36256;42.154;23.002;2023-11-19T09:25:59;4.57;;;2.70;;
36629;SDS011;36256;42.154;23.002;2023-11-19T09:28:26;3.75;;;2.72;;
36629;SDS011;36256;42.154;23.002;2023-11-19T09:30:52;5.03;;;2.80;;
36629;SDS011;36256;42.154;23.002;2023-11-19T09:33:19;4.43;;;3.05;;
36629;SDS011;36256;42.154;23.002;2023-11-19T09:35:49;6.15;;;3.55;;
36629;SDS011;36256;42.154;23.002;2023-11-19T09:38:16;45.42;;;8.50;;
36629;SDS011;36256;42.154;23.002;2023-11-19T09:40:43;5.13;;;3.15;;
36629;SDS011;36256;42.154;23.002;2023-11-19T09:43:10;5.43;;;3.33;;
36629;SDS011;36256;42.154;23.002;2023-11-19T09:48:24;4.80;;;3.40;;
36629;SDS011;36256;42.154;23.002;2023-11-19T09:50:51;6.47;;;3.40;;
36629;SDS011;36256;42.154;23.002;2023-11-19T09:53:18;4.88;;;3.50;;
36629;SDS011;36256;42.154;23.002;2023-11-19T09:55:46;6.00;;;3.17;;
36629;SDS011;36256;42.154;23.002;2023-11-19T09:58:13;5.35;;;3.80;;
36629;SDS011;36256;42.154;23.002;2023-11-19T10:00:41;6.20;;;3.15;;
36629;SDS011;36256;42.154;23.002;2023-11-19T10:03:08;5.47;;;2.95;;
36629;SDS011;36256;42.154;23.002;2023-11-19T10:05:40;4.80;;;3.13;;
36629;SDS011;36256;42.154;23.002;2023-11-19T10:08:07;4.43;;;3.20;;
36629;SDS011;36256;42.154;23.002;2023-11-19T10:10:34;5.18;;;3.58;;
36629;SDS011;36256;42.154;23.002;2023-11-19T10:13:03;4.45;;;3.20;;
36629;SDS011;36256;42.154;23.002;2023-11-19T10:15:30;2.65;;;2.15;;
36629;SDS011;36256;42.154;23.002;2023-11-19T10:18:02;4.80;;;2.80;;
36629;SDS011;36256;42.154;23.002;2023-11-19T10:20:38;5.05;;;2.95;;
36629;SDS011;36256;42.154;23.002;2023-11-19T10:23:07;5.00;;;3.33;;
36629;SDS011;36256;42.154;23.002;2023-11-19T10:25:34;4.00;;;3.35;;
36629;SDS011;36256;42.154;23.002;2023-11-19T10:28:00;4.88;;;3.80;;
36629;SDS011;36256;42.154;23.002;2023-11-19T10:30:28;4.13;;;3.00;;
36629;SDS011;36256;42.154;23.002;2023-11-19T10:33:09;3.85;;;2.80;;
36629;SDS011;36256;42.154;23.002;2023-11-19T10:35:57;3.10;;;2.47;;
36629;SDS011;36256;42.154;23.002;2023-11-19T10:38:27;2.83;;;2.60;;
36629;SDS011;36256;42.154;23.002;2023-11-19T10:40:54;3.90;;;2.70;;
36629;SDS011;36256;42.154;23.002;2023-11-19T10:43:21;3.30;;;2.90;;
36629;SDS011;36256;42.154;23.002;2023-11-19T10:45:49;3.53;;;2.70;;
36629;SDS011;36256;42.154;23.002;2023-11-19T10:48:16;6.60;;;3.05;;
36629;SDS011;36256;42.154;23.002;2023-11-19T10:50:43;6.47;;;2.67;;
36629;SDS011;36256;42.154;23.002;2023-11-19T10:53:12;6.65;;;3.13;;
36629;SDS011;36256;42.154;23.002;2023-11-19T10:55:46;4.80;;;3.28;;
36629;SDS011;36256;42.154;23.002;2023-11-19T10:58:15;5.00;;;3.70;;
36629;SDS011;36256;42.154;23.002;2023-11-19T11:00:51;17.55;;;4.05;;
36629;SDS011;36256;42.154;23.002;2023-11-19T11:03:23;7.05;;;4.10;;
36629;SDS011;36256;42.154;23.002;2023-11-19T11:05:52;5.60;;;3.63;;
36629;SDS011;36256;42.154;23.002;2023-11-19T11:08:20;5.30;;;3.30;;
36629;SDS011;36256;42.154;23.002;2023-11-19T11:10:53;9.30;;;4.55;;
36629;SDS011;36256;42.154;23.002;2023-11-19T11:13:24;7.63;;;5.10;;
36629;SDS011;36256;42.154;23.002;2023-11-19T11:15:51;7.03;;;4.55;;
36629;SDS011;36256;42.154;23.002;2023-11-19T11:18:21;4.45;;;3.50;;
36629;SDS011;36256;42.154;23.002;2023-11-19T11:20:49;3.92;;;3.20;;
36629;SDS011;36256;42.154;23.002;2023-11-19T11:29:10;4.70;;;3.47;;
36629;SDS011;36256;42.154;23.002;2023-11-19T11:39:59;5.60;;;3.45;;
36629;SDS011;36256;42.154;23.002;2023-11-19T11:42:32;6.78;;;4.28;;
36629;SDS011;36256;42.154;23.002;2023-11-19T11:45:03;8.07;;;4.28;;
36629;SDS011;36256;42.154;23.002;2023-11-19T11:50:13;4.70;;;3.70;;
36629;SDS011;36256;42.154;23.002;2023-11-19T11:55:33;4.47;;;3.35;;
36629;SDS011;36256;42.154;23.002;2023-11-19T11:58:06;4.00;;;3.20;;
36629;SDS011;36256;42.154;23.002;2023-11-19T12:00:36;5.45;;;4.13;;
36629;SDS011;36256;42.154;23.002;2023-11-19T12:03:05;5.22;;;4.53;;
36629;SDS011;36256;42.154;23.002;2023-11-19T12:05:33;6.55;;;4.30;;
36629;SDS011;36256;42.154;23.002;2023-11-19T12:08:05;10.75;;;5.90;;
36629;SDS011;36256;42.154;23.002;2023-11-19T12:10:37;6.47;;;4.22;;
36629;SDS011;36256;42.154;23.002;2023-11-19T12:13:10;5.45;;;3.78;;
36629;SDS011;36256;42.154;23.002;2023-11-19T12:18:24;4.13;;;3.20;;
36629;SDS011;36256;42.154;23.002;2023-11-19T12:20:53;3.53;;;3.05;;
36629;SDS011;36256;42.154;23.002;2023-11-19T12:23:22;10.00;;;3.55;;
36629;SDS011;36256;42.154;23.002;2023-11-19T12:25:51;4.03;;;3.35;;
36629;SDS011;36256;42.154;23.002;2023-11-19T12:28:18;13.10;;;4.28;;
36629;SDS011;36256;42.154;23.002;2023-11-19T12:30:45;6.30;;;4.20;;
36629;SDS011;36256;42.154;23.002;2023-11-19T12:33:13;6.15;;;4.30;;
36629;SDS011;36256;42.154;23.002;2023-11-19T12:35:41;21.95;;;4.78;;
36629;SDS011;36256;42.154;23.002;2023-11-19T12:38:17;4.82;;;3.67;;
36629;SDS011;36256;42.154;23.002;2023-11-19T12:41:03;4.43;;;3.00;;
36629;SDS011;36256;42.154;23.002;2023-11-19T12:43:31;4.35;;;2.83;;
36629;SDS011;36256;42.154;23.002;2023-11-19T12:46:20;3.58;;;2.53;;
36629;SDS011;36256;42.154;23.002;2023-11-19T12:48:48;4.43;;;2.88;;
36629;SDS011;36256;42.154;23.002;2023-11-19T12:51:17;5.20;;;3.47;;
36629;SDS011;36256;42.154;23.002;2023-11-19T12:53:50;5.95;;;3.70;;
36629;SDS011;36256;42.154;23.002;2023-11-19T12:56:21;3.90;;;3.03;;
36629;SDS011;36256;42.154;23.002;2023-11-19T12:58:48;4.30;;;2.78;;
36629;SDS011;36256;42.154;23.002;2023-11-19T13:01:19;3.92;;;2.95;;
36629;SDS011;36256;42.154;23.002;2023-11-19T13:03:47;6.88;;;3.65;;
36629;SDS011;36256;42.154;23.002;2023-11-19T13:06:18;3.78;;;2.70;;
36629;SDS011;36256;42.154;23.002;2023-11-19T13:08:48;9.25;;;6.13;;
36629;SDS011;36256;42.154;23.002;2023-11-19T13:11:30;6.50;;;3.30;;
36629;SDS011;36256;42.154;23.002;2023-11-19T13:16:26;4.82;;;3.20;;
36629;SDS011;36256;42.154;23.002;2023-11-19T13:18:54;4.78;;;3.42;;
36629;SDS011;36256;42.154;23.002;2023-11-19T13:21:27;5.60;;;2.90;;
36629;SDS011;36256;42.154;23.002;2023-11-19T13:23:54;3.78;;;3.03;;
36629;SDS011;36256;42.154;23.002;2023-11-19T13:26:24;3.00;;;2.50;;
36629;SDS011;36256;42.154;23.002;2023-11-19T13:28:50;4.55;;;3.10;;
36629;SDS011;36256;42.154;23.002;2023-11-19T13:31:17;3.28;;;2.72;;
36629;SDS011;36256;42.154;23.002;2023-11-19T13:33:44;6.50;;;3.05;;
36629;SDS011;36256;42.154;23.002;2023-11-19T13:36:12;5.65;;;3.80;;
36629;SDS011;36256;42.154;23.002;2023-11-19T13:38:42;5.18;;;3.50;;
36629;SDS011;36256;42.154;23.002;2023-11-19T13:41:11;11.43;;;6.20;;
36629;SDS011;36256;42.154;23.002;2023-11-19T13:43:39;9.40;;;5.95;;
36629;SDS011;36256;42.154;23.002;2023-11-19T13:46:09;6.35;;;4.60;;
36629;SDS011;36256;42.154;23.002;2023-11-19T13:48:37;18.27;;;10.32;;
36629;SDS011;36256;42.154;23.002;2023-11-19T13:51:03;12.70;;;7.20;;
36629;SDS011;36256;42.154;23.002;2023-11-19T13:53:32;14.32;;;8.30;;
36629;SDS011;36256;42.154;23.002;2023-11-19T13:56:17;6.85;;;4.82;;
36629;SDS011;36256;42.154;23.002;2023-11-19T13:58:46;6.82;;;4.95;;
36629;SDS011;36256;42.154;23.002;2023-11-19T14:01:13;16.02;;;7.78;;
36629;SDS011;36256;42.154;23.002;2023-11-19T14:03:41;13.27;;;7.43;;
36629;SDS011;36256;42.154;23.002;2023-11-19T14:06:11;9.63;;;6.70;;
36629;SDS011;36256;42.154;23.002;2023-11-19T14:08:40;13.65;;;8.02;;
36629;SDS011;36256;42.154;23.002;2023-11-19T14:11:07;16.10;;;9.52;;
36629;SDS011;36256;42.154;23.002;2023-11-19T14:13:34;22.95;;;15.70;;
36629;SDS011;36256;42.154;23.002;2023-11-19T14:16:01;23.42;;;14.85;;
36629;SDS011;36256;42.154;23.002;2023-11-19T14:18:27;11.25;;;7.90;;
36629;SDS011;36256;42.154;23.002;2023-11-19T14:20:54;11.13;;;7.05;;
36629;SDS011;36256;42.154;23.002;2023-11-19T14:23:21;11.30;;;6.67;;
36629;SDS011;36256;42.154;23.002;2023-11-19T14:25:47;21.10;;;12.38;;
36629;SDS011;36256;42.154;23.002;2023-11-19T14:28:16;33.90;;;19.90;;
36629;SDS011;36256;42.154;23.002;2023-11-19T14:30:42;54.55;;;28.20;;
36629;SDS011;36256;42.154;23.002;2023-11-19T14:33:11;42.97;;;23.33;;
36629;SDS011;36256;42.154;23.002;2023-11-19T14:35:40;26.20;;;13.18;;
36629;SDS011;36256;42.154;23.002;2023-11-19T14:38:07;38.80;;;20.08;;
36629;SDS011;36256;42.154;23.002;2023-11-19T14:40:36;44.40;;;23.33;;
36629;SDS011;36256;42.154;23.002;2023-11-19T14:43:06;32.40;;;17.85;;
36629;SDS011;36256;42.154;23.002;2023-11-19T14:45:33;13.65;;;9.90;;
36629;SDS011;36256;42.154;23.002;2023-11-19T14:48:12;22.45;;;14.52;;
36629;SDS011;36256;42.154;23.002;2023-11-19T14:50:39;28.60;;;17.23;;
36629;SDS011;36256;42.154;23.002;2023-11-19T14:53:06;15.63;;;10.75;;
36629;SDS011;36256;42.154;23.002;2023-11-19T14:55:32;10.95;;;8.27;;
36629;SDS011;36256;42.154;23.002;2023-11-19T14:58:02;8.02;;;5.65;;
36629;SDS011;36256;42.154;23.002;2023-11-19T15:00:37;6.80;;;4.90;;
36629;SDS011;36256;42.154;23.002;2023-11-19T15:03:04;10.18;;;6.85;;
36629;SDS011;36256;42.154;23.002;2023-11-19T15:05:33;16.75;;;10.25;;
36629;SDS011;36256;42.154;23.002;2023-11-19T15:08:00;8.85;;;5.50;;
36629;SDS011;36256;42.154;23.002;2023-11-19T15:10:29;4.75;;;3.78;;
36629;SDS011;36256;42.154;23.002;2023-11-19T15:12:55;6.82;;;4.10;;
36629;SDS011;36256;42.154;23.002;2023-11-19T15:15:22;6.90;;;4.35;;
36629;SDS011;36256;42.154;23.002;2023-11-19T15:17:52;5.40;;;3.72;;
36629;SDS011;36256;42.154;23.002;2023-11-19T15:20:21;4.88;;;3.60;;
36629;SDS011;36256;42.154;23.002;2023-11-19T15:22:48;5.38;;;4.50;;
36629;SDS011;36256;42.154;23.002;2023-11-19T15:25:15;5.90;;;4.55;;
36629;SDS011;36256;42.154;23.002;2023-11-19T15:27:42;9.68;;;3.80;;